Time;durP1;ratioP1;P1;durP2;ratioP2;P2;SDS_P1;SDS_P2;PMS_P1;PMS_P2;Temp;Humidity;BMP_temperature;BMP_pressure;BME280_temperature;BME280_humidity;BME280_pressure;Samples;Min_cycle;Max_cycle;Signal;HPM_P1;HPM_P2
2021/08/24 00:00:46;;;;;;;3.55;3.25;;;;;;;18.42;100.00;96799.25;5003064;28;20103;-60
2021/08/24 00:03:15;;;;;;;3.70;3.33;;;;;;;18.54;100.00;96800.41;5000481;28;20575;-60
2021/08/24 00:05:43;;;;;;;3.03;2.72;;;;;;;18.60;100.00;96799.69;4996933;28;20475;-61
2021/08/24 00:08:12;;;;;;;3.28;2.97;;;;;;;18.51;100.00;96811.47;5004749;28;20088;-60
2021/08/24 00:10:44;;;;;;;4.35;3.00;;;;;;;18.89;100.00;96809.53;5001338;28;20565;-60
2021/08/24 00:13:13;;;;;;;2.72;2.53;;;;;;;18.66;100.00;96812.28;5002682;28;20065;-60
2021/08/24 00:15:43;;;;;;;2.60;2.40;;;;;;;18.69;100.00;96813.78;5001748;28;20073;-60
2021/08/24 00:18:12;;;;;;;;;;;;;;;19.08;100.00;96808.06;5002306;28;20540;-60
2021/08/24 00:20:42;;;;;;;3.22;2.35;;;;;;;18.60;100.00;96805.03;5001520;28;20415;-59
2021/08/24 00:23:13;;;;;;;3.17;2.75;;;;;;;18.69;100.00;96803.09;5006308;28;20038;-58
2021/08/24 00:25:41;;;;;;;3.05;2.72;;;;;;;18.65;100.00;96810.66;5001040;28;20547;-60
2021/08/24 00:28:10;;;;;;;3.05;2.70;;;;;;;18.75;100.00;96799.69;5004067;28;20077;-59
2021/08/24 00:30:39;;;;;;;2.70;2.25;;;;;;;18.37;100.00;96806.97;5002984;28;20081;-56
2021/08/24 00:33:10;;;;;;;2.60;2.30;;;;;;;18.44;100.00;96806.06;5002594;28;20061;-60
2021/08/24 00:35:40;;;;;;;2.53;2.33;;;;;;;18.37;100.00;96798.97;4999691;28;20097;-60
2021/08/24 00:38:10;;;;;;;3.67;2.55;;;;;;;18.40;100.00;96807.44;5004912;28;20082;-59
2021/08/24 00:40:39;;;;;;;2.65;2.40;;;;;;;18.19;100.00;96802.00;5000859;28;20085;-57
2021/08/24 00:43:08;;;;;;;3.38;2.50;;;;;;;18.20;100.00;96809.00;5003202;28;20129;-58
2021/08/24 00:45:38;;;;;;;2.28;2.08;;;;;;;18.33;100.00;96800.34;4999331;28;20069;-57
2021/08/24 00:48:07;;;;;;;4.40;2.33;;;;;;;18.23;100.00;96795.28;5000238;28;20483;-58
2021/08/24 00:50:38;;;;;;;3.50;2.70;;;;;;;18.57;100.00;96799.22;4998736;28;20104;-60
2021/08/24 00:53:09;;;;;;;2.55;2.35;;;;;;;18.07;100.00;96798.16;4983598;28;20400;-60
2021/08/24 00:55:40;;;;;;;3.67;2.92;;;;;;;18.29;100.00;96799.06;4974369;28;20133;-60
2021/08/24 00:58:12;;;;;;;2.20;2.00;;;;;;;17.81;100.00;96803.91;4975885;28;20066;-60
2021/08/24 01:00:41;;;;;;;2.55;2.13;;;;;;;17.99;100.00;96804.38;4974510;28;20073;-59
2021/08/24 01:03:12;;;;;;;2.20;2.00;;;;;;;18.13;100.00;96805.41;4984670;28;20855;-58
2021/08/24 01:09:35;;;;;;;4.32;2.42;;;;;;;18.41;100.00;96794.91;4999850;28;20057;-59
2021/08/24 01:12:08;;;;;;;2.75;2.55;;;;;;;18.43;100.00;96803.56;4998253;28;20069;-59
2021/08/24 01:14:46;;;;;;;3.85;2.50;;;;;;;18.44;100.00;96798.06;5001509;28;20089;-59
2021/08/24 01:17:18;;;;;;;3.47;2.60;;;;;;;18.58;100.00;96795.53;5006266;28;20084;-59
2021/08/24 01:19:57;;;;;;;3.08;2.50;;;;;;;18.38;100.00;96792.63;5000723;28;20420;-58
2021/08/24 01:22:59;;;;;;;3.53;2.85;;;;;;;18.24;100.00;96802.31;5002361;28;20073;-59
2021/08/24 01:25:33;;;;;;;2.92;2.63;;;;;;;18.57;100.00;96793.88;4998314;28;20062;-57
2021/08/24 01:28:05;;;;;;;3.95;2.67;;;;;;;18.28;100.00;96798.25;4999663;28;20065;-57
2021/08/24 01:30:48;;;;;;;2.58;2.38;;;;;;;18.25;100.00;96802.09;5000869;28;20080;-59
2021/08/24 01:33:26;;;;;;;3.00;2.75;;;;;;;18.33;100.00;96795.00;5001040;28;20070;-59
2021/08/24 01:36:09;;;;;;;2.92;2.63;;;;;;;17.99;100.00;96801.72;4999068;28;20077;-59
2021/08/24 01:38:43;;;;;;;2.50;2.28;;;;;;;18.06;100.00;96793.81;4998757;28;20590;-58
2021/08/24 01:41:14;;;;;;;3.05;2.40;;;;;;;18.34;100.00;96802.00;5001503;28;20089;-60
2021/08/24 01:43:52;;;;;;;4.55;2.72;;;;;;;18.48;100.00;96807.34;4975731;28;20446;-60
2021/08/24 01:46:26;;;;;;;3.60;2.60;;;;;;;18.25;100.00;96799.44;4994439;28;20069;-58
2021/08/24 01:48:58;;;;;;;4.75;2.60;;;;;;;18.66;100.00;96790.94;4997395;28;20098;-60
2021/08/24 01:51:31;;;;;;;3.13;2.67;;;;;;;18.20;100.00;96804.50;4998489;28;21339;-57
2021/08/24 01:54:02;;;;;;;3.70;2.83;;;;;;;18.50;100.00;96807.97;4999353;28;20070;-59
2021/08/24 01:56:35;;;;;;;3.47;2.97;;;;;;;18.02;100.00;96804.03;4972686;28;20077;-58
2021/08/24 01:59:06;;;;;;;4.50;2.80;;;;;;;18.08;100.00;96805.13;5004993;28;20078;-60
2021/08/24 02:01:38;;;;;;;4.75;2.58;;;;;;;18.15;100.00;96804.22;5006103;28;20077;-59
2021/08/24 02:04:12;;;;;;;4.13;2.60;;;;;;;18.10;100.00;96803.97;5004875;28;20065;-59
2021/08/24 02:06:44;;;;;;;3.97;2.65;;;;;;;18.23;100.00;96806.78;4988151;28;20562;-58
2021/08/24 02:09:15;;;;;;;3.58;2.50;;;;;;;18.34;100.00;96805.53;4985539;28;20061;-60
2021/08/24 02:11:44;;;;;;;4.47;2.80;;;;;;;18.24;100.00;96805.78;5005212;28;21272;-59
2021/08/24 02:14:15;;;;;;;3.30;3.00;;;;;;;18.43;100.00;96803.56;5005640;28;20073;-58
2021/08/24 02:16:45;;;;;;;5.22;3.22;;;;;;;18.60;100.00;96799.69;5004198;28;20458;-59
2021/08/24 02:19:17;;;;;;;4.88;3.05;;;;;;;18.33;100.00;96806.50;5006272;28;20073;-60
2021/08/24 02:21:50;;;;;;;4.38;2.75;;;;;;;18.05;100.00;96805.50;5001307;28;20062;-60
2021/08/24 02:24:22;;;;;;;3.30;2.75;;;;;;;18.10;100.00;96805.78;5004327;28;20075;-59
2021/08/24 02:26:51;;;;;;;3.17;2.83;;;;;;;18.16;100.00;96802.38;5003348;28;20073;-60
2021/08/24 02:29:20;;;;;;;4.53;3.05;;;;;;;18.00;100.00;96801.56;5009059;28;20093;-59
2021/08/24 02:31:52;;;;;;;3.90;2.70;;;;;;;18.06;100.00;96794.63;5003588;28;20088;-60
2021/08/24 02:34:27;;;;;;;3.50;2.72;;;;;;;17.94;100.00;96802.28;4999298;28;20084;-57
2021/08/24 02:37:02;;;;;;;4.07;2.67;;;;;;;18.17;100.00;96801.34;5009840;28;20072;-60
2021/08/24 02:39:36;;;;;;;3.70;2.80;;;;;;;18.14;100.00;96794.56;5003294;28;20065;-57
2021/08/24 02:42:10;;;;;;;4.78;3.10;;;;;;;18.24;100.00;96796.97;5000427;28;20061;-59
2021/08/24 02:44:44;;;;;;;4.70;2.70;;;;;;;18.53;100.00;96790.75;5004396;28;20085;-59
2021/08/24 02:47:12;;;;;;;4.20;2.95;;;;;;;18.10;100.00;96793.28;5008499;28;20084;-56
2021/08/24 02:49:40;;;;;;;5.60;3.42;;;;;;;18.53;100.00;96781.91;5004215;28;20101;-56
2021/08/24 02:52:11;;;;;;;3.55;2.88;;;;;;;18.05;100.00;96793.00;5008679;28;20542;-57
2021/08/24 02:54:39;;;;;;;;;;;;;;;18.12;100.00;96793.09;5006476;28;20076;-60
2021/08/24 02:57:08;;;;;;;4.57;2.88;;;;;;;18.13;100.00;96792.06;5006612;28;19990;-58
2021/08/24 02:59:37;;;;;;;4.68;3.22;;;;;;;17.75;100.00;96792.91;5004019;28;20053;-57
2021/08/24 03:02:07;;;;;;;5.22;3.20;;;;;;;18.27;100.00;96785.88;5010092;28;20093;-58
2021/08/24 03:04:35;;;;;;;4.88;3.30;;;;;;;17.97;100.00;96793.09;4997678;28;20181;-59
2021/08/24 03:07:07;;;;;;;5.50;3.10;;;;;;;18.36;100.00;96787.47;4996598;28;20460;-58
2021/08/24 03:09:37;;;;;;;6.00;3.25;;;;;;;18.05;100.00;96795.66;5008644;28;20077;-59
2021/08/24 03:12:12;;;;;;;6.20;2.80;;;;;;;18.41;100.00;96792.22;5003586;28;20070;-59
2021/08/24 03:14:45;;;;;;;3.92;3.00;;;;;;;18.31;100.00;96789.88;5003267;28;20393;-59
2021/08/24 03:17:17;;;;;;;4.38;3.45;;;;;;;17.94;100.00;96788.94;5009148;28;20174;-56
2021/08/24 03:19:46;;;;;;;6.57;3.42;;;;;;;18.33;100.00;96795.00;5003942;28;20057;-59
2021/08/24 03:22:16;;;;;;;5.13;3.40;;;;;;;18.46;100.00;96795.19;5000990;28;20089;-58
2021/08/24 03:24:46;;;;;;;4.57;2.92;;;;;;;18.78;100.00;96796.63;4995483;28;20062;-56
2021/08/24 03:27:14;;;;;;;6.60;3.83;;;;;;;18.44;100.00;96794.53;5007908;28;20480;-60
2021/08/24 03:29:56;;;;;;;4.30;3.28;;;;;;;18.50;100.00;96802.63;5000384;28;20077;-59
2021/08/24 03:32:24;;;;;;;4.95;3.20;;;;;;;18.15;100.00;96806.88;5002327;28;20085;-55
2021/08/24 03:34:53;;;;;;;4.50;3.15;;;;;;;18.00;100.00;96812.22;5003190;28;20334;-58
2021/08/24 03:37:21;;;;;;;6.63;3.60;;;;;;;18.33;100.00;96808.38;5004268;28;20092;-59
2021/08/24 03:39:51;;;;;;;7.18;3.75;;;;;;;18.24;100.00;96807.63;5003368;28;20070;-59
2021/08/24 03:42:19;;;;;;;5.13;3.80;;;;;;;18.45;100.00;96810.38;5001222;28;20480;-59
2021/08/24 03:44:47;;;;;;;5.90;3.80;;;;;;;18.19;100.00;96815.34;5001459;28;20813;-59
2021/08/24 03:47:16;;;;;;;6.03;3.85;;;;;;;18.12;100.00;96819.78;5004118;28;20087;-58
2021/08/24 03:49:44;;;;;;;6.13;3.83;;;;;;;17.95;100.00;96816.44;5006853;28;20068;-57
2021/08/24 03:52:13;;;;;;;5.38;3.42;;;;;;;18.37;100.00;96815.81;5004193;28;20678;-59
2021/08/24 03:54:41;;;;;;;8.23;4.13;;;;;;;18.17;100.00;96823.56;4994024;28;20163;-59
2021/08/24 03:57:11;;;;;;;6.35;4.47;;;;;;;17.99;100.00;96820.41;4992126;28;20054;-58
2021/08/24 03:59:39;;;;;;;5.70;4.00;;;;;;;17.78;100.00;96819.25;5005981;28;20077;-59
2021/08/24 04:02:07;;;;;;;8.18;4.25;;;;;;;17.86;100.00;96817.53;4990049;28;20078;-58
2021/08/24 04:04:36;;;;;;;6.47;4.43;;;;;;;17.82;100.00;96824.22;5001166;28;20077;-59
2021/08/24 04:07:05;;;;;;;6.50;4.38;;;;;;;17.89;100.00;96820.66;4992362;28;20070;-60
2021/08/24 04:09:33;;;;;;;6.03;4.30;;;;;;;17.82;100.00;96824.22;4986205;28;20069;-58
2021/08/24 04:12:01;;;;;;;6.20;4.30;;;;;;;18.08;100.00;96830.00;4986369;28;20065;-57
2021/08/24 04:14:31;;;;;;;6.50;4.70;;;;;;;18.25;100.00;96841.31;5005149;28;20127;-58
2021/08/24 04:16:59;;;;;;;6.67;4.47;;;;;;;18.15;100.00;96835.44;5006774;28;20471;-56
2021/08/24 04:19:28;;;;;;;7.93;5.10;;;;;;;18.08;100.00;96840.66;5001066;28;20074;-58
2021/08/24 04:21:56;;;;;;;6.28;4.85;;;;;;;18.27;100.00;96836.63;5008353;28;20100;-57
2021/08/24 04:24:24;;;;;;;7.88;4.82;;;;;;;18.12;100.00;96838.47;5011555;28;20077;-58
2021/08/24 04:26:53;;;;;;;7.88;5.43;;;;;;;17.96;100.00;96831.44;5008089;28;20061;-58
2021/08/24 04:29:21;;;;;;;8.98;5.18;;;;;;;17.79;100.00;96828.13;5006534;28;20090;-57
2021/08/24 04:31:51;;;;;;;9.00;4.97;;;;;;;18.03;100.00;96835.03;5006239;28;20058;-60
2021/08/24 04:34:19;;;;;;;8.60;5.00;;;;;;;17.98;100.00;96834.75;4998213;28;20070;-59
2021/08/24 04:36:48;;;;;;;9.40;5.00;;;;;;;17.97;100.00;96838.44;5001541;28;20073;-59
2021/08/24 04:39:18;;;;;;;8.75;5.40;;;;;;;18.06;100.00;96844.53;5003917;28;20073;-59
2021/08/24 04:41:46;;;;;;;9.30;5.60;;;;;;;17.83;100.00;96842.75;5008647;28;20067;-60
2021/08/24 04:44:14;;;;;;;10.82;5.40;;;;;;;18.17;100.00;96844.06;5005794;28;20077;-59
2021/08/24 04:46:43;;;;;;;13.25;6.18;;;;;;;18.38;100.00;96836.19;5005028;28;20065;-59
2021/08/24 04:49:12;;;;;;;7.93;5.50;;;;;;;18.21;100.00;96840.03;5004956;28;20073;-54
2021/08/24 04:51:41;;;;;;;9.13;5.77;;;;;;;17.88;100.00;96839.53;5010141;28;20079;-58
2021/08/24 04:54:09;;;;;;;8.77;5.30;;;;;;;17.89;100.00;96843.84;5002565;28;20148;-59
2021/08/24 04:56:37;;;;;;;8.40;5.15;;;;;;;18.19;100.00;96840.22;5004573;28;20074;-59
2021/08/24 04:59:06;;;;;;;8.07;5.18;;;;;;;18.08;100.00;96842.50;5005942;28;20090;-60
2021/08/24 05:01:34;;;;;;;8.95;5.40;;;;;;;18.33;100.00;96841.22;5006415;28;20068;-59
2021/08/24 05:04:03;;;;;;;13.18;5.72;;;;;;;18.09;100.00;96853.00;5006147;28;20072;-58
2021/08/24 05:06:33;;;;;;;12.63;6.05;;;;;;;18.13;100.00;96850.78;5009320;28;20065;-59
2021/08/24 05:09:02;;;;;;;6.78;5.50;;;;;;;18.14;100.00;96852.47;5006233;28;20072;-56
2021/08/24 05:11:30;;;;;;;9.05;5.90;;;;;;;18.41;100.00;96854.50;5002272;28;20104;-59
2021/08/24 05:13:58;;;;;;;8.93;5.72;;;;;;;18.49;100.00;96851.72;5005603;28;20085;-53
2021/08/24 05:16:27;;;;;;;8.18;5.88;;;;;;;18.77;100.00;96851.09;4988870;28;20053;-59
2021/08/24 05:18:56;;;;;;;11.00;6.13;;;;;;;18.41;100.00;96862.53;4997719;28;20080;-59
2021/08/24 05:21:24;;;;;;;10.80;6.10;;;;;;;18.29;100.00;96857.81;4993447;28;20066;-59
2021/08/24 05:23:54;;;;;;;8.13;5.85;;;;;;;18.30;100.00;96864.78;4989707;28;20069;-57
2021/08/24 05:26:22;;;;;;;7.60;5.88;;;;;;;18.27;100.00;96858.81;5004972;28;20088;-58
2021/08/24 05:28:50;;;;;;;9.75;6.28;;;;;;;18.45;100.00;96862.97;5004997;28;20077;-54
2021/08/24 05:31:19;;;;;;;10.10;6.28;;;;;;;18.42;100.00;96866.00;5005037;28;20086;-56
2021/08/24 05:33:48;;;;;;;10.32;6.03;;;;;;;18.60;100.00;96866.47;4995063;28;20394;-57
2021/08/24 05:36:16;;;;;;;8.68;6.10;;;;;;;18.54;100.00;96867.19;4983615;28;20072;-58
2021/08/24 05:38:44;;;;;;;9.82;6.25;;;;;;;18.44;100.00;96866.63;4984391;28;20473;-58
2021/08/24 05:41:14;;;;;;;11.23;6.65;;;;;;;18.96;100.00;96858.53;5003117;28;20089;-58
2021/08/24 05:43:42;;;;;;;8.43;6.40;;;;;;;18.90;100.00;96867.31;5002350;28;20082;-59
2021/08/24 05:46:14;;;;;;;8.38;6.57;;;;;;;18.40;100.00;96870.69;5000862;28;20508;-59
2021/08/24 05:48:42;;;;;;;9.30;6.25;;;;;;;18.33;100.00;96867.94;5005153;28;20102;-59
2021/08/24 05:51:12;;;;;;;11.25;6.65;;;;;;;18.70;100.00;96869.69;5003382;28;20485;-58
2021/08/24 05:53:40;;;;;;;8.00;6.53;;;;;;;18.81;100.00;96870.25;5004781;28;20092;-59
2021/08/24 05:56:09;;;;;;;7.72;6.13;;;;;;;18.17;100.00;96876.09;5004737;28;20138;-59
2021/08/24 05:58:40;;;;;;;9.90;6.30;;;;;;;18.40;100.00;96878.72;5006111;28;20135;-59
2021/08/24 06:01:09;;;;;;;9.85;6.25;;;;;;;18.64;100.00;96881.09;5003982;28;20090;-59
2021/08/24 06:03:38;;;;;;;7.28;6.03;;;;;;;18.20;100.00;96881.06;5002943;28;20534;-58
2021/08/24 06:06:06;;;;;;;8.60;6.47;;;;;;;18.05;100.00;96880.22;5003607;28;20717;-58
2021/08/24 06:08:34;;;;;;;7.63;6.47;;;;;;;18.41;100.00;96883.03;5004842;28;20082;-59
2021/08/24 06:11:03;;;;;;;7.45;6.40;;;;;;;18.60;100.00;96879.81;5006700;28;20531;-59
2021/08/24 06:13:32;;;;;;;11.00;6.68;;;;;;;18.27;100.00;96879.34;4999300;28;20516;-58
2021/08/24 06:16:02;;;;;;;8.80;6.55;;;;;;;18.30;100.00;96880.81;5005603;28;20486;-57
2021/08/24 06:18:32;;;;;;;9.35;6.85;;;;;;;18.42;100.00;96872.19;5002325;28;20482;-58
2021/08/24 06:21:01;;;;;;;8.75;5.57;;;;;;;18.22;100.00;96876.41;5002821;28;20062;-58
2021/08/24 06:23:30;;;;;;;6.88;5.95;;;;;;;18.39;100.00;96882.41;5001927;28;20119;-58
2021/08/24 06:25:58;;;;;;;8.95;6.20;;;;;;;18.64;100.00;96878.44;5008004;28;20078;-58
2021/08/24 06:28:26;;;;;;;7.60;6.15;;;;;;;18.95;100.00;96883.59;5000409;28;20083;-58
2021/08/24 06:30:55;;;;;;;7.88;5.78;;;;;;;18.49;100.00;96889.13;5003298;28;20084;-58
2021/08/24 06:33:28;;;;;;;7.85;6.03;;;;;;;18.41;100.00;96894.56;5005168;28;20077;-59
2021/08/24 06:35:56;;;;;;;7.07;5.90;;;;;;;18.73;100.00;96888.03;5004283;28;20062;-57
2021/08/24 06:38:25;;;;;;;6.65;5.57;;;;;;;18.91;100.00;96889.50;5002889;28;20085;-56
2021/08/24 06:40:53;;;;;;;7.03;5.85;;;;;;;19.51;100.00;96884.81;5002849;28;20462;-55
2021/08/24 06:43:22;;;;;;;6.35;5.35;;;;;;;19.23;100.00;96895.44;4996218;28;20181;-59
2021/08/24 06:45:50;;;;;;;7.82;5.53;;;;;;;19.48;100.00;96886.06;5005152;28;20064;-59
2021/08/24 06:48:19;;;;;;;6.72;5.55;;;;;;;18.95;100.00;96898.81;5003719;28;20074;-58
2021/08/24 06:50:48;;;;;;;6.00;5.40;;;;;;;19.57;100.00;96884.06;5002299;28;20499;-58
2021/08/24 06:53:17;;;;;;;5.90;5.10;;;;;;;19.99;100.00;96893.13;5008991;28;20092;-58
2021/08/24 06:55:45;;;;;;;6.78;5.57;;;;;;;19.65;100.00;96892.03;5005974;28;20069;-58
2021/08/24 06:58:14;;;;;;;7.00;4.95;;;;;;;19.48;100.00;96895.91;5009016;28;20069;-57
2021/08/24 07:00:45;;;;;;;5.20;4.60;;;;;;;19.56;100.00;96899.31;5016990;28;20065;-58
2021/08/24 07:03:15;;;;;;;7.35;4.97;;;;;;;19.37;100.00;96900.75;5001706;28;20066;-59
2021/08/24 07:05:46;;;;;;;5.88;5.03;;;;;;;19.35;100.00;96893.94;4985391;28;20715;-58
2021/08/24 07:08:15;;;;;;;;;;;;;;;19.31;100.00;96895.34;5010459;28;20081;-60
2021/08/24 07:10:45;;;;;;;6.07;5.03;;;;;;;19.13;100.00;96893.06;5005939;28;19968;-59
2021/08/24 07:13:13;;;;;;;7.13;5.53;;;;;;;19.44;100.00;96898.97;5007041;28;20065;-58
2021/08/24 07:15:42;;;;;;;8.30;5.60;;;;;;;19.27;100.00;96900.22;5007739;28;20057;-59
2021/08/24 07:18:11;;;;;;;7.80;5.70;;;;;;;19.15;100.00;96897.19;5015983;28;20467;-59
2021/08/24 07:20:39;;;;;;;7.68;5.78;;;;;;;19.28;100.00;96903.72;5009314;28;20073;-58
2021/08/24 07:23:08;;;;;;;6.07;5.40;;;;;;;19.28;100.00;96903.72;5009878;28;20089;-59
2021/08/24 07:25:38;;;;;;;8.57;5.82;;;;;;;19.17;100.00;96903.19;5010736;28;20491;-59
2021/08/24 07:28:10;;;;;;;7.55;5.88;;;;;;;19.22;100.00;96905.31;4996286;28;20429;-58
2021/08/24 07:30:41;;;;;;;8.05;6.13;;;;;;;19.52;100.00;96913.25;4994302;28;20069;-59
2021/08/24 07:33:09;;;;;;;;;;;;;;;19.28;100.00;96903.72;5012668;28;20065;-59
2021/08/24 07:35:38;;;;;;;7.22;6.00;;;;;;;19.14;100.00;96906.25;5009876;28;19951;-57
2021/08/24 07:38:06;;;;;;;7.38;6.03;;;;;;;19.39;100.00;96905.91;5013492;28;20069;-58
2021/08/24 07:40:34;;;;;;;7.13;6.28;;;;;;;19.29;100.00;96903.53;5002736;28;20555;-59
2021/08/24 07:43:04;;;;;;;8.77;5.90;;;;;;;19.64;100.00;96917.94;5010892;28;20504;-55
2021/08/24 07:45:33;;;;;;;21.45;13.07;;;;;;;20.09;100.00;96910.50;5005209;28;20520;-59
2021/08/24 07:48:01;;;;;;;9.68;6.35;;;;;;;20.03;100.00;96908.63;5005918;28;20516;-59
2021/08/24 07:50:29;;;;;;;7.95;6.40;;;;;;;20.24;100.00;96913.13;5008196;28;20053;-56
2021/08/24 07:53:01;;;;;;;7.93;6.13;;;;;;;19.92;100.00;96911.81;5010013;28;20538;-56
2021/08/24 07:55:29;;;;;;;7.57;5.78;;;;;;;20.02;100.00;96914.16;5006737;28;20073;-58
2021/08/24 07:57:57;;;;;;;7.32;5.65;;;;;;;19.75;100.00;96921.97;5004201;28;20057;-59
2021/08/24 08:00:28;;;;;;;7.85;6.13;;;;;;;19.67;100.00;96920.22;5006897;28;20089;-59
2021/08/24 08:02:56;;;;;;;8.30;5.72;;;;;;;19.73;100.00;96926.66;5007375;28;20057;-59
2021/08/24 08:05:26;;;;;;;7.22;5.60;;;;;;;20.15;100.00;96923.13;5006491;28;20085;-58
2021/08/24 08:07:55;;;;;;;7.60;6.07;;;;;;;20.44;100.00;96924.00;5001238;28;20042;-60
2021/08/24 08:10:24;;;;;;;6.00;5.40;;;;;;;20.28;100.00;96922.41;5007648;28;20073;-61
2021/08/24 08:12:53;;;;;;;8.00;5.70;;;;;;;20.23;100.00;96929.38;4989909;28;20062;-59
2021/08/24 08:15:26;;;;;;;7.97;5.88;;;;;;;20.25;100.00;96933.53;4992356;28;20096;-58
2021/08/24 08:17:56;;;;;;;8.32;5.80;;;;;;;20.94;100.00;96923.91;5001472;28;20479;-59
2021/08/24 08:20:24;;;;;;;7.53;5.75;;;;;;;21.01;100.00;96922.06;5012562;28;20068;-58
2021/08/24 08:22:53;;;;;;;5.80;5.20;;;;;;;20.75;100.00;96923.59;4984379;28;20058;-57
2021/08/24 08:25:22;;;;;;;7.65;5.78;;;;;;;20.50;100.00;96927.72;5003705;28;20088;-60
2021/08/24 08:27:50;;;;;;;7.32;5.05;;;;;;;20.65;100.00;96927.63;5014074;28;20156;-59
2021/08/24 08:30:19;;;;;;;6.70;5.13;;;;;;;20.83;100.00;96922.59;5004658;28;20068;-59
2021/08/24 08:32:48;;;;;;;7.18;5.32;;;;;;;21.52;100.00;96929.75;5003646;28;20535;-59
2021/08/24 08:35:19;;;;;;;6.45;5.10;;;;;;;20.58;100.00;96931.13;4999579;28;20085;-60
2021/08/24 08:37:47;;;;;;;7.15;5.22;;;;;;;20.93;100.00;96930.28;5003690;28;20069;-58
2021/08/24 08:40:22;;;;;;;5.82;4.50;;;;;;;21.07;100.00;96929.34;5006756;28;20065;-60
2021/08/24 08:42:58;;;;;;;5.50;4.18;;;;;;;21.30;100.00;96934.38;4994959;28;21230;-56
2021/08/24 08:45:33;;;;;;;5.30;4.22;;;;;;;21.60;100.00;96926.84;5001243;28;20080;-59
2021/08/24 08:48:25;;;;;;;6.25;4.50;;;;;;;21.97;100.00;96925.47;4996027;28;20070;-59
2021/08/24 08:50:58;;;;;;;5.05;4.10;;;;;;;22.38;100.00;96929.03;4985935;28;20061;-59
2021/08/24 08:53:32;;;;;;;4.57;3.53;;;;;;;21.91;100.00;96922.78;5009799;28;20078;-59
2021/08/24 08:56:04;;;;;;;4.15;3.63;;;;;;;22.71;100.00;96918.22;4998250;28;20713;-58
2021/08/24 08:58:40;;;;;;;4.95;3.83;;;;;;;22.83;100.00;96918.44;5003052;28;20069;-57
2021/08/24 09:01:14;;;;;;;4.28;3.50;;;;;;;22.35;100.00;96914.16;5004202;28;20076;-59
2021/08/24 09:03:50;;;;;;;3.65;3.20;;;;;;;22.43;100.00;96913.94;4994276;28;20105;-59
2021/08/24 09:06:22;;;;;;;4.07;3.33;;;;;;;22.35;100.00;96913.34;5009978;28;20068;-60
2021/08/24 09:08:50;;;;;;;4.32;3.60;;;;;;;21.73;100.00;96920.69;5002480;28;20094;-58
2021/08/24 09:11:19;;;;;;;4.35;3.92;;;;;;;21.88;100.00;96921.34;5009359;28;20089;-58
2021/08/24 09:13:49;;;;;;;5.75;3.80;;;;;;;22.37;100.00;96922.84;5003239;28;20066;-59
2021/08/24 09:16:28;;;;;;;7.20;4.07;;;;;;;22.01;100.00;96923.22;5008600;28;20084;-59
2021/08/24 09:18:58;;;;;;;4.18;3.60;;;;;;;22.49;100.00;96918.47;5011801;28;20038;-57
2021/08/24 09:21:33;;;;;;;3.83;3.28;;;;;;;22.51;100.00;96916.44;5008256;28;20069;-59
2021/08/24 09:24:06;;;;;;;3.97;3.45;;;;;;;22.54;100.00;96925.94;5010596;28;20057;-60
2021/08/24 09:26:41;;;;;;;3.67;3.33;;;;;;;22.91;100.00;96928.94;5004470;28;20092;-60
2021/08/24 09:29:10;;;;;;;4.60;3.92;;;;;;;22.47;100.00;96925.09;5008644;28;20054;-60
2021/08/24 09:31:41;;;;;;;5.15;3.83;;;;;;;22.84;100.00;96920.91;5005715;28;20068;-59
2021/08/24 09:34:09;;;;;;;;;;;;;;;22.95;100.00;96927.50;5006294;28;20477;-59
2021/08/24 09:36:39;;;;;;;4.22;3.50;;;;;;;23.15;100.00;96924.75;5009587;28;19960;-59
2021/08/24 09:39:07;;;;;;;3.50;3.17;;;;;;;22.84;100.00;96920.91;5004882;28;20064;-57
2021/08/24 09:41:38;;;;;;;5.65;3.50;;;;;;;23.52;100.00;96922.34;5000005;28;20082;-60
2021/08/24 09:44:24;;;;;;;5.70;4.00;;;;;;;23.95;97.39;96918.97;5005255;28;20483;-59
2021/08/24 09:46:55;;;;;;;4.75;3.72;;;;;;;24.12;91.46;96912.88;5004235;28;20072;-55
2021/08/24 09:49:34;;;;;;;5.18;3.72;;;;;;;24.07;98.33;96911.88;5001973;28;20066;-60
2021/08/24 09:52:07;;;;;;;4.13;3.70;;;;;;;24.17;94.53;96918.41;5001978;28;20081;-60
2021/08/24 09:54:39;;;;;;;3.58;3.00;;;;;;;25.18;85.31;96913.72;5005014;28;20145;-57
2021/08/24 09:57:17;;;;;;;3.95;2.95;;;;;;;24.74;84.09;96914.81;5000040;28;20066;-53
2021/08/24 10:00:08;;;;;;;3.65;3.13;;;;;;;24.77;82.26;96920.59;4988652;28;20070;-59
2021/08/24 10:02:39;;;;;;;3.05;2.70;;;;;;;24.53;84.70;96921.44;4996322;28;20074;-58
2021/08/24 10:05:11;;;;;;;3.33;2.70;;;;;;;25.08;73.32;96914.22;5005588;28;20070;-60
2021/08/24 10:07:42;;;;;;;4.22;3.10;;;;;;;23.88;81.21;96927.97;5003508;28;20072;-60
2021/08/24 10:10:22;;;;;;;3.75;3.00;;;;;;;24.94;73.92;96915.44;5003870;28;20594;-59
2021/08/24 10:12:52;;;;;;;3.00;2.67;;;;;;;24.58;79.28;96918.94;5001278;28;20072;-59
2021/08/24 10:15:29;;;;;;;3.40;2.47;;;;;;;24.51;77.92;96918.16;5009567;28;20069;-60
2021/08/24 10:18:01;;;;;;;3.10;2.70;;;;;;;25.41;69.59;96909.53;5003996;28;20107;-59
2021/08/24 10:20:32;;;;;;;3.63;2.80;;;;;;;24.97;79.65;96919.56;5009513;28;20077;-56
2021/08/24 10:23:06;;;;;;;3.17;2.60;;;;;;;25.86;70.97;96915.34;5007017;28;20089;-60
2021/08/24 10:25:42;;;;;;;3.42;2.65;;;;;;;25.44;72.14;96914.47;4992237;28;20069;-60
2021/08/24 10:28:14;;;;;;;3.40;2.60;;;;;;;25.32;68.50;96915.22;5003706;28;20073;-60
2021/08/24 10:30:45;;;;;;;2.92;2.25;;;;;;;25.68;71.03;96916.22;5002722;28;20074;-60
2021/08/24 10:33:26;;;;;;;2.95;2.50;;;;;;;25.49;70.63;96917.28;5007634;28;20066;-60
2021/08/24 10:35:58;;;;;;;3.00;2.70;;;;;;;25.62;68.37;96925.22;5019801;28;20065;-60
2021/08/24 10:38:39;;;;;;;2.90;2.60;;;;;;;25.26;72.48;96916.16;5007759;28;20084;-60
2021/08/24 10:41:23;;;;;;;2.95;2.17;;;;;;;25.87;70.04;96911.59;5006188;28;20559;-59
2021/08/24 10:43:56;;;;;;;2.90;2.30;;;;;;;26.05;66.38;96910.72;4983013;28;20065;-59
2021/08/24 10:46:25;;;;;;;2.63;2.40;;;;;;;25.62;66.72;96919.00;5003807;28;20069;-60
2021/08/24 10:48:53;;;;;;;3.17;2.30;;;;;;;24.87;74.82;96906.59;5004510;28;20038;-61
2021/08/24 10:51:50;;;;;;;2.58;2.28;;;;;;;25.16;73.60;96912.34;5005381;28;20061;-59
2021/08/24 10:54:46;;;;;;;2.53;2.30;;;;;;;24.95;73.69;96902.75;5004298;28;20095;-57
2021/08/24 10:57:34;;;;;;;2.95;2.60;;;;;;;25.78;74.54;96905.69;5011913;28;20073;-59
2021/08/24 11:00:09;;;;;;;3.40;2.58;;;;;;;25.98;74.75;96912.69;5011384;28;20523;-59
2021/08/24 11:02:53;;;;;;;3.90;2.80;;;;;;;25.43;77.79;96907.41;5012249;28;20084;-60
2021/08/24 11:05:35;;;;;;;4.25;2.78;;;;;;;25.66;77.67;96912.91;5011195;28;20081;-59
2021/08/24 11:08:12;;;;;;;3.22;2.50;;;;;;;25.62;73.91;96914.41;4988247;28;20401;-55
2021/08/24 11:10:48;;;;;;;2.50;2.30;;;;;;;26.20;73.19;96923.78;5006964;28;20061;-60
2021/08/24 11:13:27;;;;;;;2.50;2.20;;;;;;;25.29;76.76;96920.25;5005351;28;20088;-57
2021/08/24 11:16:01;;;;;;;3.50;2.42;;;;;;;25.74;75.21;96911.75;5000673;28;20069;-58
2021/08/24 11:18:40;;;;;;;2.65;2.20;;;;;;;24.94;79.52;96917.31;4999465;28;20106;-57
2021/08/24 11:21:14;;;;;;;2.37;2.13;;;;;;;25.07;82.65;96917.16;4999414;28;20074;-60
2021/08/24 11:23:59;;;;;;;2.20;2.00;;;;;;;25.68;76.04;96921.63;5007297;28;20077;-58
2021/08/24 11:26:33;;;;;;;2.47;2.10;;;;;;;25.38;73.01;96921.59;5015716;28;20077;-60
2021/08/24 11:29:12;;;;;;;1.98;1.77;;;;;;;24.69;81.66;96923.59;5004205;28;21359;-56
2021/08/24 11:31:43;;;;;;;2.72;2.08;;;;;;;25.77;72.77;96927.50;5007521;28;20066;-58
2021/08/24 11:34:18;;;;;;;2.70;1.90;;;;;;;26.04;67.68;96927.97;5004724;28;20073;-59
2021/08/24 11:36:50;;;;;;;2.25;2.00;;;;;;;25.63;69.14;96923.34;5009112;28;20088;-58
2021/08/24 11:39:22;;;;;;;3.65;2.10;;;;;;;25.87;74.61;96926.97;5008304;28;20690;-59
2021/08/24 11:41:57;;;;;;;2.20;2.00;;;;;;;25.49;67.30;96931.63;5008777;28;20041;-57
2021/08/24 11:44:31;;;;;;;2.60;1.85;;;;;;;25.60;68.44;96927.31;5006766;28;20120;-55
2021/08/24 11:47:03;;;;;;;3.15;1.88;;;;;;;25.38;68.79;96934.28;5003560;28;21766;-59
2021/08/24 11:49:37;;;;;;;2.53;2.00;;;;;;;25.94;64.83;96935.81;5008065;28;20042;-58